sensor_id;sensor_type;location;lat;lon;timestamp;P1;durP1;ratioP1;P2;durP2;ratioP2
52718;SDS011;38616;42.140;24.760;2023-06-26T00:01:19;14.85;;;5.50;;
52718;SDS011;38616;42.140;24.760;2023-06-26T00:03:47;8.43;;;4.97;;
52718;SDS011;38616;42.140;24.760;2023-06-26T00:06:13;11.98;;;5.85;;
52718;SDS011;38616;42.140;24.760;2023-06-26T00:08:38;8.93;;;5.15;;
52718;SDS011;38616;42.140;24.760;2023-06-26T00:11:04;9.90;;;5.20;;
52718;SDS011;38616;42.140;24.760;2023-06-26T00:13:29;9.68;;;4.65;;
52718;SDS011;38616;42.140;24.760;2023-06-26T00:15:55;12.00;;;5.53;;
52718;SDS011;38616;42.140;24.760;2023-06-26T00:18:20;13.35;;;6.15;;
52718;SDS011;38616;42.140;24.760;2023-06-26T00:20:46;13.63;;;4.97;;
52718;SDS011;38616;42.140;24.760;2023-06-26T00:23:12;11.07;;;5.68;;
52718;SDS011;38616;42.140;24.760;2023-06-26T00:25:38;9.40;;;5.03;;
52718;SDS011;38616;42.140;24.760;2023-06-26T00:28:03;12.35;;;5.97;;
52718;SDS011;38616;42.140;24.760;2023-06-26T00:30:29;12.98;;;5.93;;
52718;SDS011;38616;42.140;24.760;2023-06-26T00:32:54;18.67;;;6.20;;
52718;SDS011;38616;42.140;24.760;2023-06-26T00:35:19;12.10;;;5.50;;
52718;SDS011;38616;42.140;24.760;2023-06-26T00:37:45;10.68;;;5.53;;
52718;SDS011;38616;42.140;24.760;2023-06-26T00:40:10;10.23;;;5.10;;
52718;SDS011;38616;42.140;24.760;2023-06-26T00:42:37;12.43;;;5.50;;
52718;SDS011;38616;42.140;24.760;2023-06-26T00:45:02;11.05;;;4.88;;
52718;SDS011;38616;42.140;24.760;2023-06-26T00:47:29;11.77;;;5.57;;
52718;SDS011;38616;42.140;24.760;2023-06-26T00:49:54;11.98;;;5.55;;
52718;SDS011;38616;42.140;24.760;2023-06-26T00:52:20;9.75;;;5.57;;
52718;SDS011;38616;42.140;24.760;2023-06-26T00:54:46;9.32;;;5.20;;
52718;SDS011;38616;42.140;24.760;2023-06-26T00:57:12;15.77;;;5.40;;
52718;SDS011;38616;42.140;24.760;2023-06-26T00:59:38;12.10;;;5.28;;
52718;SDS011;38616;42.140;24.760;2023-06-26T01:02:04;13.43;;;6.30;;
52718;SDS011;38616;42.140;24.760;2023-06-26T01:04:31;9.38;;;5.20;;
52718;SDS011;38616;42.140;24.760;2023-06-26T01:06:57;10.73;;;5.68;;
52718;SDS011;38616;42.140;24.760;2023-06-26T01:09:24;13.38;;;6.25;;
52718;SDS011;38616;42.140;24.760;2023-06-26T01:11:51;15.25;;;5.63;;
52718;SDS011;38616;42.140;24.760;2023-06-26T01:14:17;14.48;;;6.75;;
52718;SDS011;38616;42.140;24.760;2023-06-26T01:16:42;13.48;;;5.95;;
52718;SDS011;38616;42.140;24.760;2023-06-26T01:19:23;13.68;;;6.30;;
52718;SDS011;38616;42.140;24.760;2023-06-26T01:24:25;12.27;;;6.07;;
52718;SDS011;38616;42.140;24.760;2023-06-26T01:26:58;14.07;;;6.28;;
52718;SDS011;38616;42.140;24.760;2023-06-26T01:29:26;14.40;;;6.95;;
52718;SDS011;38616;42.140;24.760;2023-06-26T01:31:53;11.25;;;6.47;;
52718;SDS011;38616;42.140;24.760;2023-06-26T01:34:22;13.63;;;6.50;;
52718;SDS011;38616;42.140;24.760;2023-06-26T01:36:48;13.13;;;6.78;;
52718;SDS011;38616;42.140;24.760;2023-06-26T01:39:15;16.52;;;7.13;;
52718;SDS011;38616;42.140;24.760;2023-06-26T01:52:07;16.70;;;7.00;;
52718;SDS011;38616;42.140;24.760;2023-06-26T01:54:37;13.43;;;7.72;;
52718;SDS011;38616;42.140;24.760;2023-06-26T01:57:08;11.88;;;6.53;;
52718;SDS011;38616;42.140;24.760;2023-06-26T01:59:35;13.73;;;7.05;;
52718;SDS011;38616;42.140;24.760;2023-06-26T02:02:02;10.90;;;6.85;;
52718;SDS011;38616;42.140;24.760;2023-06-26T02:04:32;12.02;;;6.53;;
52718;SDS011;38616;42.140;24.760;2023-06-26T02:06:57;16.52;;;6.75;;
52718;SDS011;38616;42.140;24.760;2023-06-26T02:09:22;12.20;;;7.57;;
52718;SDS011;38616;42.140;24.760;2023-06-26T02:11:48;13.90;;;7.45;;
52718;SDS011;38616;42.140;24.760;2023-06-26T02:14:13;13.02;;;6.38;;
52718;SDS011;38616;42.140;24.760;2023-06-26T02:16:39;15.23;;;7.88;;
52718;SDS011;38616;42.140;24.760;2023-06-26T02:19:04;14.98;;;7.57;;
52718;SDS011;38616;42.140;24.760;2023-06-26T02:21:30;14.82;;;7.47;;
52718;SDS011;38616;42.140;24.760;2023-06-26T02:23:55;15.00;;;7.75;;
52718;SDS011;38616;42.140;24.760;2023-06-26T02:26:23;15.20;;;7.38;;
52718;SDS011;38616;42.140;24.760;2023-06-26T02:28:49;18.75;;;7.75;;
52718;SDS011;38616;42.140;24.760;2023-06-26T02:31:15;13.75;;;7.72;;
52718;SDS011;38616;42.140;24.760;2023-06-26T02:33:41;16.20;;;8.10;;
52718;SDS011;38616;42.140;24.760;2023-06-26T02:36:07;15.27;;;8.23;;
52718;SDS011;38616;42.140;24.760;2023-06-26T02:38:32;16.65;;;7.35;;
52718;SDS011;38616;42.140;24.760;2023-06-26T02:40:58;15.38;;;8.50;;
52718;SDS011;38616;42.140;24.760;2023-06-26T02:43:23;18.73;;;7.75;;
52718;SDS011;38616;42.140;24.760;2023-06-26T02:45:49;18.35;;;8.50;;
52718;SDS011;38616;42.140;24.760;2023-06-26T02:48:14;17.90;;;8.27;;
52718;SDS011;38616;42.140;24.760;2023-06-26T02:50:39;15.80;;;7.50;;
52718;SDS011;38616;42.140;24.760;2023-06-26T02:53:05;18.63;;;7.72;;
52718;SDS011;38616;42.140;24.760;2023-06-26T02:55:30;17.50;;;7.93;;
52718;SDS011;38616;42.140;24.760;2023-06-26T02:57:55;14.23;;;8.23;;
52718;SDS011;38616;42.140;24.760;2023-06-26T03:00:21;15.57;;;8.20;;
52718;SDS011;38616;42.140;24.760;2023-06-26T03:02:46;13.52;;;7.45;;
52718;SDS011;38616;42.140;24.760;2023-06-26T03:05:11;18.25;;;8.90;;
52718;SDS011;38616;42.140;24.760;2023-06-26T03:07:38;15.77;;;8.75;;
52718;SDS011;38616;42.140;24.760;2023-06-26T03:10:03;16.05;;;9.13;;
52718;SDS011;38616;42.140;24.760;2023-06-26T03:12:30;17.33;;;8.60;;
52718;SDS011;38616;42.140;24.760;2023-06-26T03:14:56;17.02;;;8.75;;
52718;SDS011;38616;42.140;24.760;2023-06-26T03:17:21;15.85;;;8.40;;
52718;SDS011;38616;42.140;24.760;2023-06-26T03:19:46;14.77;;;8.13;;
52718;SDS011;38616;42.140;24.760;2023-06-26T03:22:14;16.20;;;8.45;;
52718;SDS011;38616;42.140;24.760;2023-06-26T03:24:40;16.15;;;8.60;;
52718;SDS011;38616;42.140;24.760;2023-06-26T03:27:05;14.48;;;8.52;;
52718;SDS011;38616;42.140;24.760;2023-06-26T03:29:31;17.10;;;8.55;;
52718;SDS011;38616;42.140;24.760;2023-06-26T03:31:56;18.20;;;7.72;;
52718;SDS011;38616;42.140;24.760;2023-06-26T03:34:21;13.75;;;8.65;;
52718;SDS011;38616;42.140;24.760;2023-06-26T03:36:47;16.58;;;8.85;;
52718;SDS011;38616;42.140;24.760;2023-06-26T03:39:12;17.55;;;8.90;;
52718;SDS011;38616;42.140;24.760;2023-06-26T03:41:38;17.83;;;9.43;;
52718;SDS011;38616;42.140;24.760;2023-06-26T03:44:03;17.70;;;8.63;;
52718;SDS011;38616;42.140;24.760;2023-06-26T03:46:29;18.63;;;8.32;;
52718;SDS011;38616;42.140;24.760;2023-06-26T03:48:54;15.88;;;7.97;;
52718;SDS011;38616;42.140;24.760;2023-06-26T03:51:19;14.68;;;8.82;;
52718;SDS011;38616;42.140;24.760;2023-06-26T03:53:45;16.30;;;8.25;;
52718;SDS011;38616;42.140;24.760;2023-06-26T03:56:10;17.17;;;8.55;;
52718;SDS011;38616;42.140;24.760;2023-06-26T03:58:36;17.67;;;8.88;;
52718;SDS011;38616;42.140;24.760;2023-06-26T04:01:01;17.85;;;9.02;;
52718;SDS011;38616;42.140;24.760;2023-06-26T04:03:26;15.88;;;9.45;;
52718;SDS011;38616;42.140;24.760;2023-06-26T04:05:52;16.98;;;8.68;;
52718;SDS011;38616;42.140;24.760;2023-06-26T04:08:17;19.42;;;9.07;;
52718;SDS011;38616;42.140;24.760;2023-06-26T04:10:44;18.20;;;8.73;;
52718;SDS011;38616;42.140;24.760;2023-06-26T04:13:10;18.75;;;9.80;;
52718;SDS011;38616;42.140;24.760;2023-06-26T04:15:36;17.80;;;9.52;;
52718;SDS011;38616;42.140;24.760;2023-06-26T04:18:01;17.63;;;9.57;;
52718;SDS011;38616;42.140;24.760;2023-06-26T04:20:26;21.95;;;10.20;;
52718;SDS011;38616;42.140;24.760;2023-06-26T04:22:52;20.02;;;10.95;;
52718;SDS011;38616;42.140;24.760;2023-06-26T04:25:17;19.27;;;9.65;;
52718;SDS011;38616;42.140;24.760;2023-06-26T04:27:42;21.35;;;9.70;;
52718;SDS011;38616;42.140;24.760;2023-06-26T04:30:08;16.52;;;9.65;;
52718;SDS011;38616;42.140;24.760;2023-06-26T04:32:34;16.42;;;10.75;;
52718;SDS011;38616;42.140;24.760;2023-06-26T04:35:00;17.77;;;9.27;;
52718;SDS011;38616;42.140;24.760;2023-06-26T04:37:25;21.65;;;9.15;;
52718;SDS011;38616;42.140;24.760;2023-06-26T04:39:51;16.67;;;8.55;;
52718;SDS011;38616;42.140;24.760;2023-06-26T04:42:16;17.73;;;8.40;;
52718;SDS011;38616;42.140;24.760;2023-06-26T04:44:42;22.38;;;9.07;;
52718;SDS011;38616;42.140;24.760;2023-06-26T04:47:08;20.80;;;11.43;;
52718;SDS011;38616;42.140;24.760;2023-06-26T04:49:34;18.55;;;9.32;;
52718;SDS011;38616;42.140;24.760;2023-06-26T04:51:59;20.73;;;9.65;;
52718;SDS011;38616;42.140;24.760;2023-06-26T04:54:25;17.45;;;9.65;;
52718;SDS011;38616;42.140;24.760;2023-06-26T04:56:51;23.27;;;10.70;;
52718;SDS011;38616;42.140;24.760;2023-06-26T04:59:16;17.88;;;8.77;;
52718;SDS011;38616;42.140;24.760;2023-06-26T05:01:42;17.98;;;9.10;;
52718;SDS011;38616;42.140;24.760;2023-06-26T05:04:09;18.25;;;10.07;;
52718;SDS011;38616;42.140;24.760;2023-06-26T05:06:34;16.58;;;10.27;;
52718;SDS011;38616;42.140;24.760;2023-06-26T05:09:00;15.75;;;9.15;;
52718;SDS011;38616;42.140;24.760;2023-06-26T05:11:25;14.80;;;10.02;;
52718;SDS011;38616;42.140;24.760;2023-06-26T05:13:51;18.95;;;8.82;;
52718;SDS011;38616;42.140;24.760;2023-06-26T05:16:16;15.60;;;8.65;;
52718;SDS011;38616;42.140;24.760;2023-06-26T05:18:41;15.90;;;7.88;;
52718;SDS011;38616;42.140;24.760;2023-06-26T05:21:07;14.88;;;9.38;;
52718;SDS011;38616;42.140;24.760;2023-06-26T05:23:35;18.10;;;9.07;;
52718;SDS011;38616;42.140;24.760;2023-06-26T05:26:01;16.33;;;8.50;;
52718;SDS011;38616;42.140;24.760;2023-06-26T05:28:27;15.83;;;8.00;;
52718;SDS011;38616;42.140;24.760;2023-06-26T05:30:55;14.52;;;8.20;;
52718;SDS011;38616;42.140;24.760;2023-06-26T05:33:21;16.30;;;8.93;;
52718;SDS011;38616;42.140;24.760;2023-06-26T05:35:48;17.58;;;8.75;;
52718;SDS011;38616;42.140;24.760;2023-06-26T05:38:16;13.65;;;7.57;;
52718;SDS011;38616;42.140;24.760;2023-06-26T05:40:42;13.95;;;8.27;;
52718;SDS011;38616;42.140;24.760;2023-06-26T05:43:08;15.15;;;8.52;;
52718;SDS011;38616;42.140;24.760;2023-06-26T05:45:34;13.90;;;7.70;;
52718;SDS011;38616;42.140;24.760;2023-06-26T05:47:59;16.13;;;7.85;;
52718;SDS011;38616;42.140;24.760;2023-06-26T05:50:25;16.65;;;8.43;;
52718;SDS011;38616;42.140;24.760;2023-06-26T05:52:51;13.73;;;7.72;;
52718;SDS011;38616;42.140;24.760;2023-06-26T05:55:17;11.68;;;7.80;;
52718;SDS011;38616;42.140;24.760;2023-06-26T05:57:43;12.48;;;7.53;;
52718;SDS011;38616;42.140;24.760;2023-06-26T06:00:11;12.63;;;7.20;;
52718;SDS011;38616;42.140;24.760;2023-06-26T06:02:37;14.40;;;7.28;;
52718;SDS011;38616;42.140;24.760;2023-06-26T06:05:03;15.55;;;6.72;;
52718;SDS011;38616;42.140;24.760;2023-06-26T06:07:29;12.98;;;6.78;;
52718;SDS011;38616;42.140;24.760;2023-06-26T06:09:54;12.95;;;7.10;;
52718;SDS011;38616;42.140;24.760;2023-06-26T06:12:20;11.10;;;6.43;;
52718;SDS011;38616;42.140;24.760;2023-06-26T06:14:45;14.93;;;6.90;;
52718;SDS011;38616;42.140;24.760;2023-06-26T06:17:10;14.35;;;6.40;;
52718;SDS011;38616;42.140;24.760;2023-06-26T06:19:36;14.80;;;7.22;;
52718;SDS011;38616;42.140;24.760;2023-06-26T06:22:01;16.75;;;6.47;;
52718;SDS011;38616;42.140;24.760;2023-06-26T06:24:27;13.77;;;7.80;;
52718;SDS011;38616;42.140;24.760;2023-06-26T06:26:52;11.90;;;6.75;;
52718;SDS011;38616;42.140;24.760;2023-06-26T06:29:18;12.73;;;7.80;;
52718;SDS011;38616;42.140;24.760;2023-06-26T06:31:44;12.43;;;6.32;;
52718;SDS011;38616;42.140;24.760;2023-06-26T06:34:10;11.02;;;6.93;;
52718;SDS011;38616;42.140;24.760;2023-06-26T06:36:35;11.73;;;6.70;;
52718;SDS011;38616;42.140;24.760;2023-06-26T06:39:00;11.23;;;6.22;;
52718;SDS011;38616;42.140;24.760;2023-06-26T06:41:26;14.07;;;7.43;;
52718;SDS011;38616;42.140;24.760;2023-06-26T06:43:51;10.93;;;5.95;;
52718;SDS011;38616;42.140;24.760;2023-06-26T06:46:17;7.63;;;5.05;;
52718;SDS011;38616;42.140;24.760;2023-06-26T06:48:42;9.25;;;6.10;;
52718;SDS011;38616;42.140;24.760;2023-06-26T06:51:07;12.40;;;6.72;;
52718;SDS011;38616;42.140;24.760;2023-06-26T06:53:33;11.75;;;6.70;;
52718;SDS011;38616;42.140;24.760;2023-06-26T06:55:58;12.07;;;6.65;;
52718;SDS011;38616;42.140;24.760;2023-06-26T06:58:24;11.80;;;5.85;;
52718;SDS011;38616;42.140;24.760;2023-06-26T07:00:49;12.63;;;5.85;;
52718;SDS011;38616;42.140;24.760;2023-06-26T07:03:16;10.00;;;6.15;;
52718;SDS011;38616;42.140;24.760;2023-06-26T07:05:41;9.48;;;5.40;;
52718;SDS011;38616;42.140;24.760;2023-06-26T07:08:07;11.48;;;5.47;;
52718;SDS011;38616;42.140;24.760;2023-06-26T07:10:33;13.27;;;6.45;;
52718;SDS011;38616;42.140;24.760;2023-06-26T07:12:59;10.05;;;5.05;;
52718;SDS011;38616;42.140;24.760;2023-06-26T07:15:24;14.55;;;5.57;;
52718;SDS011;38616;42.140;24.760;2023-06-26T07:17:52;16.02;;;5.97;;
52718;SDS011;38616;42.140;24.760;2023-06-26T07:20:18;10.23;;;5.82;;
52718;SDS011;38616;42.140;24.760;2023-06-26T07:22:43;12.15;;;5.05;;
52718;SDS011;38616;42.140;24.760;2023-06-26T07:25:10;10.25;;;5.22;;
52718;SDS011;38616;42.140;24.760;2023-06-26T07:27:38;12.93;;;5.50;;
52718;SDS011;38616;42.140;24.760;2023-06-26T07:30:04;9.30;;;4.75;;
52718;SDS011;38616;42.140;24.760;2023-06-26T07:32:30;9.60;;;4.80;;
52718;SDS011;38616;42.140;24.760;2023-06-26T07:34:56;7.15;;;5.07;;
52718;SDS011;38616;42.140;24.760;2023-06-26T07:37:21;12.68;;;5.35;;
52718;SDS011;38616;42.140;24.760;2023-06-26T07:39:47;10.65;;;5.43;;
52718;SDS011;38616;42.140;24.760;2023-06-26T07:42:14;10.50;;;5.07;;
52718;SDS011;38616;42.140;24.760;2023-06-26T07:44:41;9.10;;;5.07;;
52718;SDS011;38616;42.140;24.760;2023-06-26T07:47:07;12.02;;;5.15;;
52718;SDS011;38616;42.140;24.760;2023-06-26T07:49:32;8.27;;;4.95;;
52718;SDS011;38616;42.140;24.760;2023-06-26T07:51:58;9.90;;;5.25;;
52718;SDS011;38616;42.140;24.760;2023-06-26T07:54:23;8.07;;;5.55;;
52718;SDS011;38616;42.140;24.760;2023-06-26T07:56:56;12.90;;;5.00;;
52718;SDS011;38616;42.140;24.760;2023-06-26T07:59:23;8.05;;;5.28;;
52718;SDS011;38616;42.140;24.760;2023-06-26T08:01:50;6.07;;;4.18;;
52718;SDS011;38616;42.140;24.760;2023-06-26T08:04:17;10.48;;;4.30;;
52718;SDS011;38616;42.140;24.760;2023-06-26T08:06:44;7.93;;;4.38;;
52718;SDS011;38616;42.140;24.760;2023-06-26T08:09:10;10.00;;;5.93;;
52718;SDS011;38616;42.140;24.760;2023-06-26T08:11:36;9.80;;;4.88;;
52718;SDS011;38616;42.140;24.760;2023-06-26T08:14:01;6.25;;;4.07;;
52718;SDS011;38616;42.140;24.760;2023-06-26T08:16:27;7.40;;;4.35;;
52718;SDS011;38616;42.140;24.760;2023-06-26T08:18:54;11.20;;;5.05;;
52718;SDS011;38616;42.140;24.760;2023-06-26T08:21:20;11.30;;;5.70;;
52718;SDS011;38616;42.140;24.760;2023-06-26T08:23:45;10.65;;;5.60;;
52718;SDS011;38616;42.140;24.760;2023-06-26T08:26:11;11.25;;;5.35;;
52718;SDS011;38616;42.140;24.760;2023-06-26T08:28:36;11.45;;;5.50;;
52718;SDS011;38616;42.140;24.760;2023-06-26T08:31:01;10.07;;;5.60;;
52718;SDS011;38616;42.140;24.760;2023-06-26T08:33:27;21.70;;;6.93;;
52718;SDS011;38616;42.140;24.760;2023-06-26T08:35:52;12.55;;;6.28;;
52718;SDS011;38616;42.140;24.760;2023-06-26T08:38:18;12.10;;;4.93;;
52718;SDS011;38616;42.140;24.760;2023-06-26T08:40:46;6.53;;;4.57;;
52718;SDS011;38616;42.140;24.760;2023-06-26T08:43:12;7.60;;;5.20;;
52718;SDS011;38616;42.140;24.760;2023-06-26T08:45:37;9.75;;;5.53;;
52718;SDS011;38616;42.140;24.760;2023-06-26T08:48:02;12.00;;;5.85;;
52718;SDS011;38616;42.140;24.760;2023-06-26T08:50:33;10.20;;;5.70;;
52718;SDS011;38616;42.140;24.760;2023-06-26T08:53:23;12.00;;;7.00;;
52718;SDS011;38616;42.140;24.760;2023-06-26T08:55:58;10.75;;;5.65;;
52718;SDS011;38616;42.140;24.760;2023-06-26T08:58:25;13.25;;;6.63;;
52718;SDS011;38616;42.140;24.760;2023-06-26T09:00:50;11.68;;;6.97;;
52718;SDS011;38616;42.140;24.760;2023-06-26T09:03:16;9.48;;;6.45;;
52718;SDS011;38616;42.140;24.760;2023-06-26T09:05:42;10.75;;;6.10;;
52718;SDS011;38616;42.140;24.760;2023-06-26T09:08:07;11.98;;;6.72;;
52718;SDS011;38616;42.140;24.760;2023-06-26T09:10:33;12.88;;;7.22;;
52718;SDS011;38616;42.140;24.760;2023-06-26T09:12:59;8.77;;;5.55;;
52718;SDS011;38616;42.140;24.760;2023-06-26T09:15:26;9.48;;;5.25;;
52718;SDS011;38616;42.140;24.760;2023-06-26T09:17:55;9.05;;;5.53;;
52718;SDS011;38616;42.140;24.760;2023-06-26T09:20:22;12.05;;;6.00;;
52718;SDS011;38616;42.140;24.760;2023-06-26T09:22:48;8.88;;;5.30;;
52718;SDS011;38616;42.140;24.760;2023-06-26T09:25:13;12.60;;;5.63;;
52718;SDS011;38616;42.140;24.760;2023-06-26T09:27:39;10.95;;;5.72;;
52718;SDS011;38616;42.140;24.760;2023-06-26T09:30:05;8.93;;;5.50;;
52718;SDS011;38616;42.140;24.760;2023-06-26T09:32:34;8.93;;;5.25;;
52718;SDS011;38616;42.140;24.760;2023-06-26T09:35:02;11.98;;;6.32;;
52718;SDS011;38616;42.140;24.760;2023-06-26T09:37:29;10.70;;;5.13;;
52718;SDS011;38616;42.140;24.760;2023-06-26T09:39:55;8.75;;;5.03;;
52718;SDS011;38616;42.140;24.760;2023-06-26T09:42:20;13.25;;;4.82;;
52718;SDS011;38616;42.140;24.760;2023-06-26T09:44:46;10.25;;;5.13;;
52718;SDS011;38616;42.140;24.760;2023-06-26T09:47:15;8.55;;;5.45;;
52718;SDS011;38616;42.140;24.760;2023-06-26T09:49:42;14.35;;;5.85;;
52718;SDS011;38616;42.140;24.760;2023-06-26T09:52:08;10.05;;;5.28;;
52718;SDS011;38616;42.140;24.760;2023-06-26T09:54:34;11.30;;;4.70;;
52718;SDS011;38616;42.140;24.760;2023-06-26T09:57:11;9.43;;;4.72;;
52718;SDS011;38616;42.140;24.760;2023-06-26T09:59:39;6.68;;;3.95;;
52718;SDS011;38616;42.140;24.760;2023-06-26T10:02:05;7.38;;;3.92;;
52718;SDS011;38616;42.140;24.760;2023-06-26T10:04:32;8.20;;;4.60;;
52718;SDS011;38616;42.140;24.760;2023-06-26T10:06:58;11.35;;;4.22;;
52718;SDS011;38616;42.140;24.760;2023-06-26T10:09:27;10.13;;;4.10;;
52718;SDS011;38616;42.140;24.760;2023-06-26T10:12:03;9.10;;;4.38;;
52718;SDS011;38616;42.140;24.760;2023-06-26T10:14:38;7.90;;;4.57;;
52718;SDS011;38616;42.140;24.760;2023-06-26T10:19:34;9.15;;;4.63;;
52718;SDS011;38616;42.140;24.760;2023-06-26T10:22:01;8.95;;;5.03;;
52718;SDS011;38616;42.140;24.760;2023-06-26T10:24:29;12.10;;;6.57;;
52718;SDS011;38616;42.140;24.760;2023-06-26T10:26:59;16.58;;;8.30;;
52718;SDS011;38616;42.140;24.760;2023-06-26T10:29:29;14.10;;;8.32;;
52718;SDS011;38616;42.140;24.760;2023-06-26T10:31:57;11.50;;;6.85;;
52718;SDS011;38616;42.140;24.760;2023-06-26T10:34:25;11.07;;;5.38;;
52718;SDS011;38616;42.140;24.760;2023-06-26T10:37:00;9.52;;;5.63;;
52718;SDS011;38616;42.140;24.760;2023-06-26T10:39:27;7.88;;;4.97;;
52718;SDS011;38616;42.140;24.760;2023-06-26T10:42:02;9.27;;;5.45;;
52718;SDS011;38616;42.140;24.760;2023-06-26T10:44:40;9.20;;;5.00;;
52718;SDS011;38616;42.140;24.760;2023-06-26T10:47:09;48.80;;;8.07;;
52718;SDS011;38616;42.140;24.760;2023-06-26T10:49:36;11.77;;;5.37;;
52718;SDS011;38616;42.140;24.760;2023-06-26T10:52:04;9.70;;;5.05;;
52718;SDS011;38616;42.140;24.760;2023-06-26T10:54:32;9.52;;;5.03;;
52718;SDS011;38616;42.140;24.760;2023-06-26T10:56:58;8.30;;;4.95;;
52718;SDS011;38616;42.140;24.760;2023-06-26T10:59:25;8.55;;;4.85;;
52718;SDS011;38616;42.140;24.760;2023-06-26T11:01:58;15.98;;;7.38;;
52718;SDS011;38616;42.140;24.760;2023-06-26T11:04:41;14.45;;;7.57;;
52718;SDS011;38616;42.140;24.760;2023-06-26T11:15:03;10.63;;;4.95;;
52718;SDS011;38616;42.140;24.760;2023-06-26T11:17:41;8.90;;;4.43;;
52718;SDS011;38616;42.140;24.760;2023-06-26T11:20:08;13.15;;;5.47;;
52718;SDS011;38616;42.140;24.760;2023-06-26T11:22:35;16.52;;;8.20;;
52718;SDS011;38616;42.140;24.760;2023-06-26T11:25:06;18.88;;;10.68;;
52718;SDS011;38616;42.140;24.760;2023-06-26T11:27:42;19.40;;;8.57;;
52718;SDS011;38616;42.140;24.760;2023-06-26T11:30:09;16.85;;;7.47;;
52718;SDS011;38616;42.140;24.760;2023-06-26T11:32:36;11.45;;;6.03;;
52718;SDS011;38616;42.140;24.760;2023-06-26T11:35:03;13.63;;;6.80;;
52718;SDS011;38616;42.140;24.760;2023-06-26T11:37:29;10.05;;;6.18;;
52718;SDS011;38616;42.140;24.760;2023-06-26T11:39:56;11.07;;;5.95;;
52718;SDS011;38616;42.140;24.760;2023-06-26T11:42:21;9.57;;;5.18;;
52718;SDS011;38616;42.140;24.760;2023-06-26T11:44:46;11.55;;;5.15;;
52718;SDS011;38616;42.140;24.760;2023-06-26T11:47:13;11.57;;;5.35;;
52718;SDS011;38616;42.140;24.760;2023-06-26T11:49:46;10.10;;;5.70;;
52718;SDS011;38616;42.140;24.760;2023-06-26T11:52:12;10.10;;;6.05;;
52718;SDS011;38616;42.140;24.760;2023-06-26T11:54:39;7.97;;;5.07;;
52718;SDS011;38616;42.140;24.760;2023-06-26T11:57:04;10.45;;;6.32;;
52718;SDS011;38616;42.140;24.760;2023-06-26T11:59:37;12.73;;;7.47;;
52718;SDS011;38616;42.140;24.760;2023-06-26T12:02:08;11.63;;;6.05;;
52718;SDS011;38616;42.140;24.760;2023-06-26T12:04:39;13.80;;;7.18;;
52718;SDS011;38616;42.140;24.760;2023-06-26T12:07:07;11.93;;;5.93;;
52718;SDS011;38616;42.140;24.760;2023-06-26T12:09:41;13.52;;;6.10;;
52718;SDS011;38616;42.140;24.760;2023-06-26T12:12:11;12.48;;;5.75;;
52718;SDS011;38616;42.140;24.760;2023-06-26T12:14:39;10.75;;;6.68;;
52718;SDS011;38616;42.140;24.760;2023-06-26T12:17:10;11.65;;;6.20;;
52718;SDS011;38616;42.140;24.760;2023-06-26T12:19:37;8.98;;;5.20;;
52718;SDS011;38616;42.140;24.760;2023-06-26T12:22:06;11.32;;;6.63;;
52718;SDS011;38616;42.140;24.760;2023-06-26T12:24:33;10.73;;;5.63;;
52718;SDS011;38616;42.140;24.760;2023-06-26T12:27:00;13.13;;;5.90;;
52718;SDS011;38616;42.140;24.760;2023-06-26T12:29:31;10.63;;;6.05;;
52718;SDS011;38616;42.140;24.760;2023-06-26T12:31:58;10.32;;;5.43;;
52718;SDS011;38616;42.140;24.760;2023-06-26T12:34:33;10.48;;;6.15;;
52718;SDS011;38616;42.140;24.760;2023-06-26T12:37:00;6.90;;;4.40;;
52718;SDS011;38616;42.140;24.760;2023-06-26T12:39:28;12.70;;;5.15;;
52718;SDS011;38616;42.140;24.760;2023-06-26T12:41:55;11.80;;;4.85;;
52718;SDS011;38616;42.140;24.760;2023-06-26T12:44:25;7.13;;;4.47;;
52718;SDS011;38616;42.140;24.760;2023-06-26T12:46:56;8.13;;;4.63;;
52718;SDS011;38616;42.140;24.760;2023-06-26T12:49:35;8.48;;;4.93;;
52718;SDS011;38616;42.140;24.760;2023-06-26T12:52:05;8.50;;;4.60;;
52718;SDS011;38616;42.140;24.760;2023-06-26T12:54:35;8.52;;;4.25;;
52718;SDS011;38616;42.140;24.760;2023-06-26T12:57:02;8.43;;;4.63;;
52718;SDS011;38616;42.140;24.760;2023-06-26T12:59:34;6.35;;;4.43;;
52718;SDS011;38616;42.140;24.760;2023-06-26T13:02:00;14.00;;;5.32;;
52718;SDS011;38616;42.140;24.760;2023-06-26T13:04:26;8.90;;;3.67;;
52718;SDS011;38616;42.140;24.760;2023-06-26T13:06:52;13.15;;;4.15;;
52718;SDS011;38616;42.140;24.760;2023-06-26T13:09:19;5.97;;;3.78;;
52718;SDS011;38616;42.140;24.760;2023-06-26T13:11:45;8.13;;;4.40;;
52718;SDS011;38616;42.140;24.760;2023-06-26T13:14:11;11.02;;;5.50;;
52718;SDS011;38616;42.140;24.760;2023-06-26T13:16:36;8.40;;;4.78;;
52718;SDS011;38616;42.140;24.760;2023-06-26T13:19:02;10.30;;;5.35;;
52718;SDS011;38616;42.140;24.760;2023-06-26T13:21:28;10.82;;;5.28;;
52718;SDS011;38616;42.140;24.760;2023-06-26T13:23:54;11.32;;;5.10;;
52718;SDS011;38616;42.140;24.760;2023-06-26T13:26:20;15.13;;;5.93;;
52718;SDS011;38616;42.140;24.760;2023-06-26T13:28:46;13.88;;;5.00;;
52718;SDS011;38616;42.140;24.760;2023-06-26T13:31:13;8.97;;;4.40;;
52718;SDS011;38616;42.140;24.760;2023-06-26T13:33:38;7.32;;;4.00;;
52718;SDS011;38616;42.140;24.760;2023-06-26T13:36:04;7.93;;;4.32;;
52718;SDS011;38616;42.140;24.760;2023-06-26T13:38:30;8.23;;;4.25;;
52718;SDS011;38616;42.140;24.760;2023-06-26T13:40:58;10.85;;;4.00;;
52718;SDS011;38616;42.140;24.760;2023-06-26T13:43:25;11.93;;;6.95;;
52718;SDS011;38616;42.140;24.760;2023-06-26T13:45:51;13.32;;;7.95;;
52718;SDS011;38616;42.140;24.760;2023-06-26T13:48:17;16.42;;;7.22;;
52718;SDS011;38616;42.140;24.760;2023-06-26T13:50:42;15.65;;;3.97;;
52718;SDS011;38616;42.140;24.760;2023-06-26T13:53:08;10.90;;;3.90;;
52718;SDS011;38616;42.140;24.760;2023-06-26T13:55:34;12.07;;;4.47;;
52718;SDS011;38616;42.140;24.760;2023-06-26T13:58:00;9.68;;;3.97;;
52718;SDS011;38616;42.140;24.760;2023-06-26T14:00:29;5.25;;;2.85;;
52718;SDS011;38616;42.140;24.760;2023-06-26T14:02:54;8.93;;;3.50;;
52718;SDS011;38616;42.140;24.760;2023-06-26T14:05:21;5.25;;;3.05;;
52718;SDS011;38616;42.140;24.760;2023-06-26T14:07:47;8.85;;;3.30;;
52718;SDS011;38616;42.140;24.760;2023-06-26T14:10:13;5.85;;;2.88;;
52718;SDS011;38616;42.140;24.760;2023-06-26T14:12:39;8.00;;;3.28;;
52718;SDS011;38616;42.140;24.760;2023-06-26T14:15:05;6.65;;;3.80;;
52718;SDS011;38616;42.140;24.760;2023-06-26T14:17:31;7.85;;;3.35;;
52718;SDS011;38616;42.140;24.760;2023-06-26T14:19:56;6.50;;;3.92;;
52718;SDS011;38616;42.140;24.760;2023-06-26T14:22:22;8.45;;;3.42;;
52718;SDS011;38616;42.140;24.760;2023-06-26T14:24:48;12.13;;;4.13;;
52718;SDS011;38616;42.140;24.760;2023-06-26T14:27:14;5.05;;;2.83;;
52718;SDS011;38616;42.140;24.760;2023-06-26T14:29:39;9.95;;;3.88;;
52718;SDS011;38616;42.140;24.760;2023-06-26T14:32:06;6.88;;;3.70;;
52718;SDS011;38616;42.140;24.760;2023-06-26T14:34:32;7.43;;;3.60;;
52718;SDS011;38616;42.140;24.760;2023-06-26T14:36:58;5.90;;;3.00;;
52718;SDS011;38616;42.140;24.760;2023-06-26T14:39:23;11.48;;;4.47;;
52718;SDS011;38616;42.140;24.760;2023-06-26T14:41:49;10.52;;;4.80;;
52718;SDS011;38616;42.140;24.760;2023-06-26T14:44:14;8.60;;;3.67;;